createdAt,value
2023-04-24T00:02:15.553Z,12.40
2023-04-24T00:07:17.816Z,12.40
2023-04-24T00:12:19.559Z,12.40
2023-04-24T00:17:21.760Z,12.30
2023-04-24T00:22:23.612Z,12.30
2023-04-24T00:27:25.502Z,12.30
2023-04-24T00:32:27.222Z,12.30
2023-04-24T00:37:29.668Z,12.30
2023-04-24T00:42:31.629Z,12.20
2023-04-24T00:47:34.748Z,12.20
2023-04-24T00:52:37.008Z,12.10
2023-04-24T00:57:39.558Z,12.10
2023-04-24T01:02:46.279Z,12.00
2023-04-24T01:07:50.143Z,12.10
2023-04-24T01:12:52.767Z,12.00
2023-04-24T01:17:54.524Z,12.10
2023-04-24T01:22:57.544Z,12.00
2023-04-24T01:28:00.034Z,12.00
2023-04-24T01:33:02.113Z,12.10
2023-04-24T01:38:04.209Z,12.00
2023-04-24T01:43:06.322Z,12.00
2023-04-24T01:48:08.205Z,12.00
2023-04-24T01:53:10.137Z,12.00
2023-04-24T01:58:12.000Z,11.90
2023-04-24T02:03:13.895Z,11.90
2023-04-24T02:08:15.610Z,11.90
2023-04-24T02:13:17.343Z,11.80
2023-04-24T02:18:19.226Z,11.80
2023-04-24T02:23:21.062Z,11.80
2023-04-24T02:28:22.780Z,11.60
2023-04-24T02:33:24.449Z,11.60
2023-04-24T02:38:26.132Z,11.60
2023-04-24T02:43:27.836Z,11.50
2023-04-24T02:48:29.521Z,11.50
2023-04-24T02:53:31.752Z,11.50
2023-04-24T02:58:33.542Z,11.50
2023-04-24T03:03:35.616Z,11.60
2023-04-24T03:08:37.697Z,11.60
2023-04-24T03:13:39.389Z,11.60
2023-04-24T03:18:41.065Z,11.60
2023-04-24T03:23:42.757Z,11.60
2023-04-24T03:28:44.592Z,11.60
2023-04-24T03:33:46.278Z,11.50
2023-04-24T03:38:47.991Z,11.40
2023-04-24T03:43:49.911Z,11.30
2023-04-24T03:48:51.693Z,11.30
2023-04-24T03:53:53.448Z,11.30
2023-04-24T03:58:55.331Z,11.20
2023-04-24T04:03:57.232Z,11.30
2023-04-24T04:08:59.636Z,11.30
2023-04-24T04:14:02.001Z,11.20
2023-04-24T04:19:04.341Z,11.20
2023-04-24T04:24:06.598Z,11.10
2023-04-24T04:29:08.435Z,11.10
2023-04-24T04:34:10.220Z,11.10
2023-04-24T04:39:11.981Z,11.20
2023-04-24T04:44:13.695Z,11.10
2023-04-24T04:49:17.730Z,11.10
2023-04-24T04:54:19.527Z,11.00
2023-04-24T04:59:21.333Z,11.00
2023-04-24T05:04:23.212Z,11.00
2023-04-24T05:09:28.202Z,11.10
2023-04-24T05:14:29.989Z,11.10
2023-04-24T05:19:33.941Z,11.10
2023-04-24T05:24:35.652Z,11.10
2023-04-24T05:29:37.417Z,11.00
2023-04-24T05:34:39.206Z,11.00
2023-04-24T05:39:42.359Z,10.90
2023-04-24T05:44:44.687Z,10.90
2023-04-24T05:49:46.430Z,10.90
2023-04-24T05:54:48.199Z,10.80
2023-04-24T05:59:50.026Z,10.80
2023-04-24T06:04:51.912Z,10.80
2023-04-24T06:09:53.768Z,10.80
2023-04-24T06:14:56.540Z,10.90
2023-04-24T06:19:58.318Z,11.00
2023-04-24T06:25:01.653Z,10.90
2023-04-24T06:30:04.016Z,10.80
2023-04-24T06:35:08.353Z,10.80
2023-04-24T06:40:10.872Z,10.70
2023-04-24T06:45:12.631Z,10.70
2023-04-24T06:50:14.443Z,10.60
2023-04-24T06:55:17.560Z,10.60
2023-04-24T07:00:19.714Z,10.60
2023-04-24T07:05:21.417Z,10.60
2023-04-24T07:10:23.237Z,10.70
2023-04-24T07:15:24.900Z,10.80
2023-04-24T07:20:27.032Z,11.00
2023-04-24T07:25:28.779Z,11.00
2023-04-24T07:30:30.595Z,11.20
2023-04-24T07:35:35.076Z,11.30
2023-04-24T07:40:36.783Z,11.60
2023-04-24T07:45:38.785Z,11.90
2023-04-24T07:50:40.456Z,12.20
2023-04-24T07:55:42.204Z,12.20
2023-04-24T08:00:43.967Z,12.40
2023-04-24T08:05:45.808Z,12.40
2023-04-24T08:10:47.566Z,12.20
2023-04-24T08:15:49.455Z,11.80
2023-04-24T08:20:51.154Z,11.70
2023-04-24T08:25:52.905Z,11.40
2023-04-24T08:30:55.832Z,11.30
2023-04-24T08:35:57.712Z,11.40
2023-04-24T08:41:00.981Z,11.50
2023-04-24T08:46:05.557Z,11.70
2023-04-24T08:51:09.811Z,11.90
2023-04-24T08:56:13.826Z,12.30
2023-04-24T09:01:16.000Z,12.40
2023-04-24T09:06:20.301Z,12.60
2023-04-24T09:11:24.108Z,12.40
2023-04-24T09:16:27.209Z,12.80
2023-04-24T09:21:36.529Z,12.70
2023-04-24T09:26:38.437Z,12.80
2023-04-24T09:31:40.284Z,13.10
2023-04-24T09:36:43.813Z,13.30
2023-04-24T09:41:47.755Z,12.80
2023-04-24T09:46:58.488Z,12.60
2023-04-24T09:52:11.372Z,12.50
2023-04-24T09:57:15.542Z,12.50
2023-04-24T10:02:21.434Z,12.70
2023-04-24T10:07:26.764Z,13.10
2023-04-24T10:12:30.005Z,14.00
2023-04-24T10:17:32.185Z,14.90
2023-04-24T10:22:34.808Z,15.00
2023-04-24T10:27:38.247Z,14.60
2023-04-24T10:32:40.009Z,14.70
2023-04-24T10:37:47.425Z,15.70
2023-04-24T10:42:52.447Z,15.00
2023-04-24T10:48:19.539Z,15.40
2023-04-24T10:53:28.257Z,15.20
2023-04-24T10:58:51.005Z,14.40
2023-04-24T11:03:57.136Z,13.80
2023-04-24T11:09:10.865Z,13.80
2023-04-24T11:14:16.310Z,13.70
2023-04-24T11:19:17.987Z,13.40
2023-04-24T11:24:39.217Z,13.20
2023-04-24T11:29:56.130Z,13.30
2023-04-24T11:35:03.360Z,13.30
2023-04-24T11:40:07.189Z,13.30
2023-04-24T11:45:14.045Z,13.00
2023-04-24T11:50:17.924Z,13.20
2023-04-24T11:55:19.810Z,13.20
2023-04-24T12:00:32.853Z,13.40
2023-04-24T12:05:35.953Z,13.10
2023-04-24T12:10:38.076Z,13.20
2023-04-24T12:15:41.635Z,13.40
2023-04-24T12:20:43.750Z,13.50
2023-04-24T12:25:45.444Z,13.80
2023-04-24T12:30:51.249Z,14.40
2023-04-24T12:35:56.531Z,15.10
2023-04-24T12:41:10.384Z,15.00
2023-04-24T12:46:12.155Z,14.50
2023-04-24T12:51:13.922Z,14.20
2023-04-24T12:56:15.674Z,13.90
2023-04-24T13:01:17.484Z,13.90
2023-04-24T13:06:19.257Z,13.80
2023-04-24T13:11:22.506Z,13.90
2023-04-24T13:16:24.486Z,14.10
2023-04-24T13:21:27.405Z,14.50
2023-04-24T13:26:29.197Z,14.30
2023-04-24T13:31:31.081Z,14.30
2023-04-24T13:36:32.927Z,14.30
2023-04-24T13:41:35.286Z,14.50
2023-04-24T13:46:37.093Z,14.60
2023-04-24T13:51:39.562Z,14.60
2023-04-24T13:56:41.711Z,14.90
2023-04-24T14:01:43.622Z,14.90
2023-04-24T14:06:45.519Z,14.90
2023-04-24T14:11:47.413Z,15.20
2023-04-24T14:16:49.137Z,15.10
2023-04-24T14:21:50.957Z,14.50
2023-04-24T14:26:52.782Z,14.10
2023-04-24T14:31:54.569Z,13.20
2023-04-24T14:36:56.697Z,13.10
2023-04-24T14:41:58.585Z,13.00
2023-04-24T14:47:00.764Z,13.00
2023-04-24T14:52:03.901Z,12.90
2023-04-24T14:57:05.755Z,12.80
2023-04-24T15:02:16.168Z,12.80
2023-04-24T15:07:18.889Z,12.90
2023-04-24T15:12:20.823Z,12.90
2023-04-24T15:17:22.547Z,13.00
2023-04-24T15:22:24.308Z,13.20
2023-04-24T15:27:26.195Z,13.10
2023-04-24T15:32:28.054Z,13.30
2023-04-24T15:37:29.826Z,13.50
2023-04-24T15:42:31.785Z,13.20
2023-04-24T15:47:34.017Z,13.20
2023-04-24T15:52:36.206Z,13.30
2023-04-24T15:57:38.223Z,13.10
2023-04-24T16:02:40.451Z,13.30
2023-04-24T16:07:42.442Z,13.20
2023-04-24T16:12:44.186Z,13.20
2023-04-24T16:17:45.983Z,13.10
2023-04-24T16:22:47.949Z,13.00
2023-04-24T16:27:51.374Z,12.90
2023-04-24T16:32:53.192Z,12.80
2023-04-24T16:37:55.120Z,12.90
2023-04-24T16:42:56.862Z,13.00
2023-04-24T16:47:58.856Z,13.20
2023-04-24T16:53:00.655Z,13.10
2023-04-24T16:58:02.402Z,13.10
2023-04-24T17:03:04.281Z,13.00
2023-04-24T17:08:06.280Z,12.80
2023-04-24T17:13:08.759Z,12.80
2023-04-24T17:18:11.353Z,12.80
2023-04-24T17:23:13.735Z,12.80
2023-04-24T17:28:31.052Z,12.60
2023-04-24T17:33:32.881Z,12.50
2023-04-24T17:38:34.712Z,12.60
2023-04-24T17:43:36.450Z,12.60
2023-04-24T17:48:38.248Z,12.50
2023-04-24T17:53:41.010Z,12.50
2023-04-24T17:58:42.865Z,12.50
2023-04-24T18:03:44.819Z,12.40
2023-04-24T18:08:46.856Z,12.40
2023-04-24T18:13:49.671Z,12.30
2023-04-24T18:18:51.415Z,12.40
2023-04-24T18:23:54.100Z,12.20
2023-04-24T18:28:56.245Z,12.30
2023-04-24T18:33:58.441Z,12.20
2023-04-24T18:39:00.266Z,12.10
2023-04-24T18:44:02.509Z,12.00
2023-04-24T18:49:04.609Z,12.00
2023-04-24T18:54:06.392Z,12.00
2023-04-24T18:59:08.722Z,12.00
2023-04-24T19:04:11.041Z,12.00
2023-04-24T19:09:12.792Z,11.90
2023-04-24T19:14:16.215Z,11.90
2023-04-24T19:19:18.003Z,11.70
2023-04-24T19:24:21.182Z,11.80
2023-04-24T19:29:23.000Z,11.70
2023-04-24T19:34:25.220Z,11.70
2023-04-24T19:39:27.179Z,11.80
2023-04-24T19:44:28.860Z,11.70
2023-04-24T19:49:30.943Z,11.70
2023-04-24T19:54:32.637Z,11.70
2023-04-24T19:59:34.359Z,11.60
2023-04-24T20:04:36.440Z,11.60
2023-04-24T20:09:38.373Z,11.60
2023-04-24T20:14:40.539Z,11.60
2023-04-24T20:19:42.524Z,11.50
2023-04-24T20:24:45.928Z,11.50
2023-04-24T20:29:47.663Z,11.40
2023-04-24T20:34:49.374Z,11.40
2023-04-24T20:39:52.028Z,11.40
2023-04-24T20:44:53.723Z,11.40
2023-04-24T20:49:55.480Z,11.40
2023-04-24T20:54:57.194Z,11.40
2023-04-24T20:59:58.941Z,11.40
2023-04-24T21:05:00.767Z,11.40
2023-04-24T21:10:02.538Z,11.40
2023-04-24T21:15:04.791Z,11.30
2023-04-24T21:20:08.309Z,11.30
2023-04-24T21:25:10.337Z,11.30
2023-04-24T21:30:12.572Z,11.30
2023-04-24T21:35:14.302Z,11.20
2023-04-24T21:40:16.063Z,11.30
2023-04-24T21:45:17.742Z,11.20
2023-04-24T21:50:19.564Z,11.20
2023-04-24T21:55:21.699Z,11.20
2023-04-24T22:00:24.572Z,11.20
2023-04-24T22:05:26.787Z,11.10
2023-04-24T22:10:28.580Z,11.10
2023-04-24T22:15:31.089Z,11.00
2023-04-24T22:20:33.610Z,10.70
2023-04-24T22:25:35.488Z,10.70
2023-04-24T22:30:37.777Z,10.60
2023-04-24T22:35:39.581Z,10.50
2023-04-24T22:40:42.473Z,10.50
2023-04-24T22:45:44.236Z,10.50
2023-04-24T22:50:47.004Z,10.60
2023-04-24T22:55:48.797Z,10.40
2023-04-24T23:00:50.908Z,10.40
2023-04-24T23:05:52.656Z,10.40
2023-04-24T23:10:54.355Z,10.40
2023-04-24T23:15:56.381Z,10.50
2023-04-24T23:20:58.598Z,10.50
2023-04-24T23:26:00.906Z,10.40
2023-04-24T23:31:02.603Z,10.40
2023-04-24T23:36:04.929Z,10.40
2023-04-24T23:41:06.937Z,10.40
2023-04-24T23:46:08.702Z,10.30
2023-04-24T23:51:10.809Z,10.30
2023-04-24T23:56:12.525Z,10.40
